createdAt,value
2017-08-23T00:00:34.143Z,79.50
2017-08-23T00:03:02.422Z,79.40
2017-08-23T00:05:30.658Z,79.20
2017-08-23T00:07:58.943Z,78.80
2017-08-23T00:10:27.211Z,78.80
2017-08-23T00:12:55.478Z,78.60
2017-08-23T00:15:23.731Z,78.30
2017-08-23T00:17:51.998Z,78.40
2017-08-23T00:20:20.264Z,78.60
2017-08-23T00:22:48.532Z,78.90
2017-08-23T00:25:16.782Z,78.90
2017-08-23T00:27:45.070Z,78.30
2017-08-23T00:30:13.309Z,78.40
2017-08-23T00:32:41.593Z,77.90
2017-08-23T00:35:09.814Z,78.00
2017-08-23T00:37:38.229Z,77.80
2017-08-23T00:40:06.451Z,77.60
2017-08-23T00:42:34.698Z,77.40
2017-08-23T00:45:02.959Z,77.10
2017-08-23T00:47:31.187Z,77.30
2017-08-23T00:49:59.449Z,76.90
2017-08-23T00:52:27.725Z,76.50
2017-08-23T00:54:56.004Z,76.80
2017-08-23T00:57:24.226Z,75.80
2017-08-23T00:59:52.498Z,75.90
2017-08-23T01:02:20.726Z,75.70
2017-08-23T01:04:49.013Z,75.80
2017-08-23T01:07:17.213Z,76.70
2017-08-23T01:09:45.470Z,77.10
2017-08-23T01:12:13.707Z,77.40
2017-08-23T01:14:41.950Z,77.80
2017-08-23T01:17:10.191Z,78.20
2017-08-23T01:19:38.445Z,78.40
2017-08-23T01:22:06.735Z,78.80
2017-08-23T01:24:34.995Z,79.20
2017-08-23T01:27:03.245Z,79.00
2017-08-23T01:29:31.510Z,78.60
2017-08-23T01:31:59.736Z,78.90
2017-08-23T01:34:28.981Z,79.10
2017-08-23T01:36:57.195Z,79.60
2017-08-23T01:39:25.479Z,78.90
2017-08-23T01:41:53.734Z,78.60
2017-08-23T01:44:22.025Z,78.30
2017-08-23T01:46:51.514Z,78.00
2017-08-23T01:49:19.902Z,77.90
2017-08-23T01:51:48.165Z,78.00
2017-08-23T01:54:16.424Z,78.10
2017-08-23T01:56:44.673Z,77.60
2017-08-23T01:59:12.926Z,76.90
2017-08-23T02:01:41.159Z,77.20
2017-08-23T02:04:09.433Z,77.60
2017-08-23T02:06:37.709Z,77.80
2017-08-23T02:09:05.958Z,77.70
2017-08-23T02:11:34.190Z,77.90
2017-08-23T02:14:02.438Z,78.00
2017-08-23T02:16:30.708Z,78.10
2017-08-23T02:18:58.950Z,78.10
2017-08-23T02:21:27.211Z,78.50
2017-08-23T02:23:55.446Z,78.90
2017-08-23T02:26:23.725Z,79.10
2017-08-23T02:28:52.001Z,79.20
2017-08-23T02:31:20.232Z,79.40
2017-08-23T02:33:48.499Z,79.60
2017-08-23T02:36:16.723Z,80.00
2017-08-23T02:38:44.993Z,79.50
2017-08-23T02:41:13.241Z,79.40
2017-08-23T02:43:41.507Z,79.20
2017-08-23T02:46:09.753Z,79.30
2017-08-23T02:48:37.985Z,79.00
2017-08-23T02:51:06.246Z,78.70
2017-08-23T02:53:34.501Z,78.70
2017-08-23T02:56:02.746Z,78.70
2017-08-23T02:58:31.082Z,78.70
2017-08-23T03:00:59.355Z,78.70
2017-08-23T03:03:27.606Z,78.70
2017-08-23T03:05:56.161Z,78.70
2017-08-23T03:08:24.414Z,78.50
2017-08-23T03:10:52.669Z,78.20
2017-08-23T03:13:20.932Z,78.40
2017-08-23T03:15:49.271Z,78.50
2017-08-23T03:18:17.506Z,78.60
2017-08-23T03:20:45.750Z,78.70
2017-08-23T03:23:14.134Z,79.20
2017-08-23T03:25:42.390Z,78.50
2017-08-23T03:28:10.684Z,78.50
2017-08-23T03:30:39.677Z,78.10
2017-08-23T03:33:07.959Z,78.00
2017-08-23T03:35:36.230Z,78.00
2017-08-23T03:38:04.489Z,77.90
2017-08-23T03:40:32.733Z,78.10
2017-08-23T03:43:00.990Z,78.60
2017-08-23T03:45:29.250Z,78.10
2017-08-23T03:47:57.498Z,78.70
2017-08-23T03:50:25.719Z,78.60
2017-08-23T03:52:53.962Z,78.40
2017-08-23T03:55:22.232Z,78.50
2017-08-23T03:57:50.454Z,78.30
2017-08-23T04:00:18.704Z,78.30
2017-08-23T04:02:46.949Z,79.20
2017-08-23T04:05:15.329Z,78.40
2017-08-23T04:07:43.535Z,78.40
2017-08-23T04:10:11.761Z,78.60
2017-08-23T04:12:40.014Z,78.30
2017-08-23T04:15:08.263Z,78.30
2017-08-23T04:17:36.562Z,78.40
2017-08-23T04:20:04.818Z,78.30
2017-08-23T04:22:33.094Z,78.30
2017-08-23T04:25:01.341Z,78.60
2017-08-23T04:27:29.595Z,78.50
2017-08-23T04:29:58.154Z,78.50
2017-08-23T04:32:27.161Z,78.80
2017-08-23T04:34:55.410Z,78.80
2017-08-23T04:37:23.691Z,78.80
2017-08-23T04:39:51.940Z,78.20
2017-08-23T04:42:20.218Z,78.30
2017-08-23T04:44:48.487Z,78.20
2017-08-23T04:47:16.704Z,78.30
2017-08-23T04:49:44.962Z,78.70
2017-08-23T04:52:13.235Z,77.90
2017-08-23T04:54:41.484Z,77.80
2017-08-23T04:57:10.029Z,77.80
2017-08-23T04:59:38.355Z,77.40
2017-08-23T05:02:06.573Z,77.40
2017-08-23T05:04:34.833Z,76.80
2017-08-23T05:07:03.082Z,77.10
2017-08-23T05:09:31.325Z,76.50
2017-08-23T05:11:59.581Z,76.20
2017-08-23T05:14:27.863Z,76.30
2017-08-23T05:16:56.127Z,76.00
2017-08-23T05:19:24.375Z,75.60
2017-08-23T05:21:52.606Z,75.50
2017-08-23T05:24:20.859Z,76.30
2017-08-23T05:26:49.134Z,75.20
2017-08-23T05:29:17.375Z,75.00
2017-08-23T05:31:45.655Z,75.00
2017-08-23T05:34:13.903Z,74.70
2017-08-23T05:36:42.162Z,74.30
2017-08-23T05:39:10.405Z,74.20
2017-08-23T05:41:38.675Z,74.10
2017-08-23T05:44:06.921Z,74.10
2017-08-23T05:46:35.171Z,73.70
2017-08-23T05:49:03.429Z,73.80
2017-08-23T05:51:31.663Z,73.80
2017-08-23T05:53:59.898Z,73.50
2017-08-23T05:56:29.881Z,72.90
2017-08-23T05:58:58.119Z,72.80
2017-08-23T06:01:26.371Z,72.60
2017-08-23T06:03:54.615Z,72.80
2017-08-23T06:06:22.871Z,71.10
2017-08-23T06:08:51.136Z,72.00
2017-08-23T06:11:19.357Z,72.00
2017-08-23T06:13:47.614Z,71.40
2017-08-23T06:16:15.856Z,71.60
2017-08-23T06:18:44.111Z,71.70
2017-08-23T06:21:12.369Z,71.10
2017-08-23T06:23:40.616Z,70.90
2017-08-23T06:26:09.643Z,70.50
2017-08-23T06:28:37.922Z,70.40
2017-08-23T06:31:06.182Z,70.40
2017-08-23T06:33:34.438Z,70.10
2017-08-23T06:36:02.717Z,69.70
2017-08-23T06:38:30.966Z,69.40
2017-08-23T06:40:59.227Z,69.80
2017-08-23T06:43:27.501Z,69.40
2017-08-23T06:45:55.814Z,69.10
2017-08-23T06:48:24.085Z,68.80
2017-08-23T06:50:52.370Z,69.20
2017-08-23T06:53:20.591Z,68.70
2017-08-23T06:55:48.861Z,68.20
2017-08-23T06:58:17.099Z,68.40
2017-08-23T07:00:45.342Z,68.50
2017-08-23T07:03:13.617Z,68.30
2017-08-23T07:05:41.898Z,66.30
2017-08-23T07:08:10.119Z,67.70
2017-08-23T07:10:38.375Z,67.20
2017-08-23T07:13:06.644Z,65.50
2017-08-23T07:15:34.951Z,66.00
2017-08-23T07:18:03.260Z,66.30
2017-08-23T07:20:31.503Z,65.90
2017-08-23T07:22:59.765Z,65.50
2017-08-23T07:25:28.019Z,65.60
2017-08-23T07:27:56.274Z,66.00
2017-08-23T07:30:24.535Z,66.00
2017-08-23T07:32:53.558Z,65.40
2017-08-23T07:35:21.863Z,65.40
2017-08-23T07:37:50.076Z,64.10
2017-08-23T07:40:18.327Z,64.60
2017-08-23T07:42:46.619Z,64.80
2017-08-23T07:45:14.929Z,64.70
2017-08-23T07:47:43.184Z,64.20
2017-08-23T07:50:11.474Z,63.10
2017-08-23T07:52:39.952Z,63.00
2017-08-23T07:55:08.302Z,63.00
2017-08-23T07:57:36.590Z,62.00
2017-08-23T08:00:05.061Z,62.00
2017-08-23T08:02:34.403Z,62.40
2017-08-23T08:05:02.670Z,62.40
2017-08-23T08:07:30.939Z,61.80
2017-08-23T08:09:59.227Z,61.10
2017-08-23T08:12:27.475Z,61.00
2017-08-23T08:14:55.747Z,60.70
2017-08-23T08:17:23.989Z,60.80
2017-08-23T08:19:52.216Z,62.20
2017-08-23T08:22:20.458Z,60.70
2017-08-23T08:24:49.126Z,59.00
2017-08-23T08:27:17.393Z,59.30
2017-08-23T08:29:45.639Z,59.50
2017-08-23T08:32:13.882Z,59.90
2017-08-23T08:34:42.182Z,59.80
2017-08-23T08:37:10.416Z,60.50
2017-08-23T08:39:38.636Z,58.30
2017-08-23T08:42:06.894Z,58.50
2017-08-23T08:44:35.134Z,58.50
2017-08-23T08:47:03.415Z,58.40
2017-08-23T08:49:31.726Z,58.20
2017-08-23T08:51:59.989Z,58.40
2017-08-23T08:54:28.235Z,59.20
2017-08-23T08:56:56.475Z,57.60
2017-08-23T08:59:24.738Z,57.80
2017-08-23T09:01:53.024Z,57.20
2017-08-23T09:04:21.251Z,56.90
2017-08-23T09:06:49.541Z,56.70
2017-08-23T09:09:17.777Z,56.50
2017-08-23T09:11:46.044Z,56.20
2017-08-23T09:14:14.278Z,56.70
2017-08-23T09:16:42.554Z,56.20
2017-08-23T09:19:10.829Z,56.20
2017-08-23T09:21:39.110Z,55.70
2017-08-23T09:24:07.352Z,55.50
2017-08-23T09:26:35.595Z,55.40
2017-08-23T09:29:03.864Z,55.80
2017-08-23T09:31:32.118Z,54.00
2017-08-23T09:34:00.377Z,53.40
2017-08-23T09:36:28.618Z,53.40
2017-08-23T09:38:56.888Z,54.20
2017-08-23T09:41:25.153Z,53.20
2017-08-23T09:43:53.415Z,52.90
2017-08-23T09:46:21.659Z,54.00
2017-08-23T09:48:49.907Z,53.40
2017-08-23T09:51:18.133Z,52.00
2017-08-23T09:53:46.424Z,50.20
2017-08-23T09:56:14.666Z,51.10
2017-08-23T09:58:42.949Z,50.90
2017-08-23T10:01:11.176Z,50.90
2017-08-23T10:03:39.463Z,49.30
2017-08-23T10:06:07.750Z,49.30
2017-08-23T10:08:35.976Z,48.40
2017-08-23T10:11:04.243Z,48.00
2017-08-23T10:13:32.507Z,48.60
2017-08-23T10:16:00.770Z,45.90
2017-08-23T10:18:29.010Z,46.70
2017-08-23T10:20:57.601Z,46.00
2017-08-23T10:23:25.863Z,47.60
2017-08-23T10:25:54.138Z,47.00
2017-08-23T10:28:22.394Z,46.20
2017-08-23T10:30:50.628Z,46.80
2017-08-23T10:33:18.886Z,47.00
2017-08-23T10:35:47.155Z,48.30
2017-08-23T10:38:15.430Z,48.00
2017-08-23T10:40:43.697Z,49.50
2017-08-23T10:43:11.943Z,49.00
2017-08-23T10:45:40.197Z,47.00
2017-08-23T10:48:08.440Z,46.70
2017-08-23T10:50:36.715Z,47.30
2017-08-23T10:53:04.954Z,47.70
2017-08-23T10:55:33.231Z,47.30
2017-08-23T10:58:01.546Z,47.50
2017-08-23T11:00:29.822Z,45.80
2017-08-23T11:02:58.077Z,47.20
2017-08-23T11:05:26.340Z,46.50
2017-08-23T11:07:54.659Z,46.70
2017-08-23T11:10:22.893Z,46.60
2017-08-23T11:12:51.196Z,48.40
2017-08-23T11:15:19.469Z,46.10
2017-08-23T11:17:47.705Z,46.40
2017-08-23T11:20:16.034Z,46.70
2017-08-23T11:22:44.281Z,46.10
2017-08-23T11:25:12.547Z,46.10
2017-08-23T11:27:40.790Z,46.90
2017-08-23T11:30:09.038Z,46.60
2017-08-23T11:32:37.270Z,45.80
2017-08-23T11:35:05.515Z,44.90
2017-08-23T11:37:33.738Z,47.20
2017-08-23T11:40:02.019Z,45.70
2017-08-23T11:42:30.286Z,47.80
2017-08-23T11:44:58.499Z,48.00
2017-08-23T11:47:26.800Z,46.80
2017-08-23T11:49:55.158Z,45.70
2017-08-23T11:52:23.424Z,44.90
2017-08-23T11:54:51.643Z,47.60
2017-08-23T11:57:19.916Z,45.50
2017-08-23T11:59:48.154Z,45.10
2017-08-23T12:02:16.752Z,44.90
2017-08-23T12:04:44.981Z,45.10
2017-08-23T12:07:13.234Z,45.70
2017-08-23T12:09:41.518Z,46.30
2017-08-23T12:12:10.790Z,43.90
2017-08-23T12:14:39.229Z,43.90
2017-08-23T12:17:07.452Z,45.50
2017-08-23T12:19:36.085Z,43.80
2017-08-23T12:22:20.242Z,43.70
2017-08-23T12:24:48.770Z,43.90
2017-08-23T12:27:17.034Z,43.70
2017-08-23T12:29:45.274Z,44.60
2017-08-23T12:32:13.566Z,45.30
2017-08-23T12:34:41.972Z,43.80
2017-08-23T12:37:10.397Z,43.80
2017-08-23T12:39:39.763Z,43.90
2017-08-23T12:42:09.661Z,44.00
2017-08-23T12:44:37.923Z,44.00
2017-08-23T12:47:06.221Z,44.90
2017-08-23T12:49:34.441Z,43.90
2017-08-23T12:52:02.682Z,42.90
2017-08-23T12:54:30.991Z,43.70
2017-08-23T12:56:59.242Z,43.60
2017-08-23T12:59:27.482Z,44.10
2017-08-23T13:01:55.739Z,45.90
2017-08-23T13:04:24.015Z,43.90
2017-08-23T13:06:52.350Z,46.20
2017-08-23T13:09:20.565Z,44.40
2017-08-23T13:11:48.836Z,45.00
2017-08-23T13:14:17.104Z,44.10
2017-08-23T13:16:45.350Z,45.30
2017-08-23T13:19:13.817Z,45.50
2017-08-23T13:21:43.891Z,45.00
2017-08-23T13:24:12.195Z,44.40
2017-08-23T13:26:40.451Z,43.50
2017-08-23T13:29:08.703Z,43.00
2017-08-23T13:31:37.653Z,43.40
2017-08-23T13:34:05.902Z,44.30
2017-08-23T13:36:34.138Z,43.00
2017-08-23T13:39:02.504Z,43.60
2017-08-23T13:41:30.730Z,43.30
2017-08-23T13:43:58.965Z,43.00
2017-08-23T13:46:27.565Z,42.90
2017-08-23T13:48:55.839Z,44.30
2017-08-23T13:51:24.075Z,44.70
2017-08-23T13:53:52.294Z,42.90
2017-08-23T13:56:20.536Z,42.90
2017-08-23T13:58:48.786Z,43.20
2017-08-23T14:01:17.076Z,43.40
2017-08-23T14:03:45.334Z,44.40
2017-08-23T14:06:13.588Z,45.40
2017-08-23T14:08:41.933Z,43.40
2017-08-23T14:11:10.171Z,44.20
2017-08-23T14:13:38.418Z,43.40
2017-08-23T14:16:06.643Z,42.80
2017-08-23T14:18:34.910Z,43.80
2017-08-23T14:21:03.250Z,44.70
2017-08-23T14:23:32.280Z,43.60
2017-08-23T14:26:00.542Z,43.60
2017-08-23T14:28:28.795Z,41.70
2017-08-23T14:30:57.810Z,44.00
2017-08-23T14:33:26.082Z,43.90
2017-08-23T14:35:54.322Z,44.50
2017-08-23T14:38:22.621Z,44.50
2017-08-23T14:40:50.890Z,44.90
2017-08-23T14:43:19.118Z,45.40
2017-08-23T14:45:47.378Z,43.40
2017-08-23T14:48:15.616Z,43.00
2017-08-23T14:50:43.904Z,42.20
2017-08-23T14:53:12.942Z,42.90
2017-08-23T14:55:41.155Z,42.90
2017-08-23T14:58:09.436Z,43.30
2017-08-23T15:00:37.715Z,43.80
2017-08-23T15:03:05.928Z,43.90
2017-08-23T15:05:34.164Z,43.20
2017-08-23T15:08:02.434Z,43.30
2017-08-23T15:10:30.696Z,42.70
2017-08-23T15:12:58.955Z,43.10
2017-08-23T15:15:27.218Z,43.40
2017-08-23T15:17:55.470Z,42.90
2017-08-23T15:20:23.876Z,43.10
2017-08-23T15:22:52.130Z,44.50
2017-08-23T15:25:20.479Z,43.20
2017-08-23T15:27:48.704Z,42.40
2017-08-23T15:30:17.019Z,41.50
2017-08-23T15:32:45.246Z,41.40
2017-08-23T15:35:13.516Z,41.00
2017-08-23T15:37:41.750Z,40.80
2017-08-23T15:40:10.004Z,39.90
2017-08-23T15:42:38.287Z,39.70
2017-08-23T15:45:06.510Z,39.40
2017-08-23T15:47:34.769Z,40.00
2017-08-23T15:50:03.077Z,40.70
2017-08-23T15:52:32.064Z,41.70
2017-08-23T15:55:00.333Z,41.20
2017-08-23T15:57:28.706Z,40.90
2017-08-23T15:59:56.991Z,41.40
2017-08-23T16:02:25.244Z,41.40
2017-08-23T16:04:53.503Z,41.30
2017-08-23T16:07:21.763Z,41.20
2017-08-23T16:09:50.045Z,40.40
2017-08-23T16:12:18.314Z,40.70
2017-08-23T16:14:46.671Z,39.90
2017-08-23T16:17:14.946Z,40.20
2017-08-23T16:19:43.252Z,40.20
2017-08-23T16:22:11.458Z,40.70
2017-08-23T16:24:39.736Z,40.60
2017-08-23T16:27:08.008Z,40.80
2017-08-23T16:29:36.303Z,40.80
2017-08-23T16:32:04.539Z,40.90
2017-08-23T16:34:32.825Z,40.40
2017-08-23T16:37:01.084Z,41.40
2017-08-23T16:39:29.376Z,41.60
2017-08-23T16:41:57.621Z,41.50
2017-08-23T16:44:25.922Z,41.90
2017-08-23T16:46:54.188Z,42.00
2017-08-23T16:49:22.476Z,43.30
2017-08-23T16:51:50.769Z,43.30
2017-08-23T16:54:19.104Z,44.30
2017-08-23T16:56:47.436Z,45.10
2017-08-23T16:59:15.657Z,45.70
2017-08-23T17:01:43.914Z,44.80
2017-08-23T17:04:12.164Z,45.30
2017-08-23T17:06:40.443Z,47.00
2017-08-23T17:09:08.790Z,48.00
2017-08-23T17:11:37.057Z,47.80
2017-08-23T17:14:05.351Z,48.10
2017-08-23T17:16:33.624Z,48.60
2017-08-23T17:19:01.843Z,49.40
2017-08-23T17:21:30.101Z,49.20
2017-08-23T17:23:58.335Z,50.60
2017-08-23T17:26:26.596Z,51.20
2017-08-23T17:28:55.054Z,52.20
2017-08-23T17:31:23.257Z,53.20
2017-08-23T17:33:51.549Z,53.50
2017-08-23T17:36:19.826Z,54.10
2017-08-23T17:38:48.089Z,52.60
2017-08-23T17:41:16.345Z,53.40
2017-08-23T17:43:44.649Z,54.20
2017-08-23T17:46:12.938Z,53.90
2017-08-23T17:48:41.193Z,54.80
2017-08-23T17:51:09.430Z,55.30
2017-08-23T17:53:37.714Z,55.80
2017-08-23T17:56:05.986Z,54.80
2017-08-23T17:58:34.226Z,55.50
2017-08-23T18:01:02.517Z,55.90
2017-08-23T18:03:30.814Z,56.50
2017-08-23T18:05:59.083Z,56.30
2017-08-23T18:08:27.404Z,56.20
2017-08-23T18:10:55.653Z,58.10
2017-08-23T18:13:23.915Z,57.60
2017-08-23T18:15:52.217Z,57.80
2017-08-23T18:18:20.475Z,58.80
2017-08-23T18:20:48.885Z,59.10
2017-08-23T18:23:17.113Z,59.70
2017-08-23T18:25:45.447Z,59.60
2017-08-23T18:28:13.715Z,60.10
2017-08-23T18:30:41.956Z,60.30
2017-08-23T18:33:10.262Z,61.20
2017-08-23T18:35:38.504Z,61.40
2017-08-23T18:38:07.035Z,61.60
2017-08-23T18:40:35.360Z,62.60
2017-08-23T18:43:03.665Z,62.60
2017-08-23T18:45:32.201Z,63.00
2017-08-23T18:48:00.460Z,63.60
2017-08-23T18:50:28.744Z,62.60
2017-08-23T18:52:57.049Z,63.80
2017-08-23T18:55:25.334Z,64.60
2017-08-23T18:57:54.688Z,65.70
2017-08-23T19:00:22.989Z,66.50
2017-08-23T19:02:51.739Z,68.00
2017-08-23T19:05:23.558Z,68.10
2017-08-23T19:07:52.184Z,68.90
2017-08-23T19:10:20.435Z,69.20
2017-08-23T19:12:48.802Z,69.50
2017-08-23T19:15:17.115Z,70.00
2017-08-23T19:17:45.516Z,68.50
2017-08-23T19:20:13.783Z,67.50
2017-08-23T19:22:43.313Z,68.70
2017-08-23T19:25:11.708Z,69.00
2017-08-23T19:27:40.046Z,69.30
2017-08-23T19:30:08.531Z,69.20
2017-08-23T19:32:36.944Z,70.30
2017-08-23T19:35:06.283Z,70.70
2017-08-23T19:37:34.699Z,71.00
2017-08-23T19:40:02.975Z,71.00
2017-08-23T19:42:31.229Z,71.10
2017-08-23T19:44:59.489Z,70.20
2017-08-23T19:47:30.743Z,65.30
2017-08-23T19:49:59.067Z,67.20
2017-08-23T19:52:27.383Z,65.70
2017-08-23T19:54:55.717Z,66.10
2017-08-23T19:57:24.002Z,65.90
2017-08-23T19:59:52.253Z,65.20
2017-08-23T20:02:20.533Z,64.80
2017-08-23T20:04:48.801Z,64.40
2017-08-23T20:07:17.091Z,64.00
2017-08-23T20:09:45.334Z,62.70
2017-08-23T20:12:13.624Z,63.60
2017-08-23T20:14:41.953Z,64.70
2017-08-23T20:17:10.414Z,64.30
2017-08-23T20:19:38.702Z,64.40
2017-08-23T20:22:07.431Z,64.60
2017-08-23T20:24:35.704Z,64.30
2017-08-23T20:27:04.876Z,63.60
2017-08-23T20:29:33.160Z,62.10
2017-08-23T20:32:01.440Z,63.00
2017-08-23T20:34:29.671Z,63.80
2017-08-23T20:37:08.238Z,63.60
2017-08-23T20:39:36.524Z,62.60
2017-08-23T20:42:04.809Z,62.90
2017-08-23T20:44:33.079Z,63.90
2017-08-23T20:47:01.444Z,63.50
2017-08-23T20:49:29.736Z,63.50
2017-08-23T20:51:58.045Z,64.50
2017-08-23T20:54:27.613Z,65.30
2017-08-23T20:56:55.835Z,65.20
2017-08-23T20:59:24.101Z,64.60
2017-08-23T21:01:52.537Z,63.90
2017-08-23T21:04:20.844Z,62.30
2017-08-23T21:06:49.227Z,62.30
2017-08-23T21:09:17.534Z,63.70
2017-08-23T21:11:45.791Z,62.90
2017-08-23T21:14:14.116Z,63.40
2017-08-23T21:16:42.486Z,64.30
2017-08-23T21:19:10.776Z,64.50
2017-08-23T21:21:39.003Z,64.30
2017-08-23T21:24:07.272Z,64.70
2017-08-23T21:26:35.538Z,63.00
2017-08-23T21:29:03.795Z,64.60
2017-08-23T21:31:32.093Z,64.20
2017-08-23T21:34:00.344Z,64.30
2017-08-23T21:36:28.614Z,65.10
2017-08-23T21:38:56.980Z,65.60
2017-08-23T21:41:25.366Z,65.60
2017-08-23T21:43:54.399Z,65.80
2017-08-23T21:46:22.683Z,65.80
2017-08-23T21:48:50.908Z,65.60
2017-08-23T21:51:19.185Z,65.70
2017-08-23T21:53:47.436Z,65.90
2017-08-23T21:56:15.775Z,65.10
2017-08-23T21:58:44.065Z,64.90
2017-08-23T22:01:12.309Z,64.90
2017-08-23T22:03:40.604Z,65.00
2017-08-23T22:11:16.365Z,65.10
2017-08-23T22:13:44.589Z,65.00
2017-08-23T22:16:12.884Z,65.60
2017-08-23T22:18:41.193Z,65.60
2017-08-23T22:21:09.413Z,65.40
2017-08-23T22:23:37.673Z,65.40
2017-08-23T22:26:06.025Z,65.30
2017-08-23T22:28:34.264Z,64.70
2017-08-23T22:31:02.593Z,65.00
2017-08-23T22:33:30.807Z,64.90
2017-08-23T22:35:59.123Z,65.20
2017-08-23T22:38:27.419Z,64.90
2017-08-23T22:40:55.688Z,64.90
2017-08-23T22:43:24.661Z,65.10
2017-08-23T22:45:52.926Z,64.90
2017-08-23T22:48:21.193Z,65.20
2017-08-23T22:50:49.426Z,65.00
2017-08-23T22:53:17.703Z,64.50
2017-08-23T22:55:45.946Z,64.80
2017-08-23T22:58:14.206Z,65.40
2017-08-23T23:00:42.458Z,65.20
2017-08-23T23:03:10.713Z,65.00
2017-08-23T23:05:39.025Z,65.10
2017-08-23T23:08:07.281Z,65.40
2017-08-23T23:10:35.589Z,65.80
2017-08-23T23:13:03.843Z,65.60
2017-08-23T23:15:32.133Z,66.80
2017-08-23T23:18:00.338Z,68.00
2017-08-23T23:20:28.590Z,68.30
2017-08-23T23:22:56.846Z,68.40
2017-08-23T23:25:25.089Z,68.30
2017-08-23T23:27:53.354Z,69.20
2017-08-23T23:30:21.634Z,69.80
2017-08-23T23:32:50.642Z,70.40
2017-08-23T23:35:18.894Z,70.40
2017-08-23T23:37:47.134Z,70.90
2017-08-23T23:40:15.390Z,71.10
2017-08-23T23:42:44.713Z,71.60
2017-08-23T23:45:13.018Z,71.60
2017-08-23T23:47:41.255Z,71.80
2017-08-23T23:50:09.483Z,72.20
2017-08-23T23:52:37.717Z,72.20
2017-08-23T23:55:05.953Z,72.00
2017-08-23T23:57:34.247Z,71.90
